RRR6206 EGVN-BIKF
Flight info
| Callsign | RRR6206 |
|---|---|
| Flight time | N/A |
| Altitude | 34000 |
| Route | DTY UY53 SAPCO UN57 POL UN601 RIBEL DCT ATSIX/M074F340 DCT PODAR DCT ALDAN DCT ASRUN ASRUN4N |
| Aircraft | C17/H-SDE1E2FGHIJ5RTUWXY/LB1D1 |
Departure
| Time | 2026-05-05 16:39 |
|---|---|
| Airport | RAF Brize Norton (EGVN) |
Arrival
| Time | N/A |
|---|---|
| Airport | Keflavik International Airport (BIKF) |
| Time | Latitude | Longitude | Altitude | Speed | Heading |
|---|---|---|---|---|---|
| 2026-05-05 16:09 | 51.75599 | -1.57546 | 261 ft | 0 kts | 108° |
| 2026-05-05 16:30 | 51.75599 | -1.57543 | 263 ft | 2 kts | 108° |
| 2026-05-05 16:30 | 51.75597 | -1.57452 | 261 ft | 14 kts | 65° |
| 2026-05-05 16:30 | 51.75693 | -1.57382 | 261 ft | 16 kts | 15° |
| 2026-05-05 16:31 | 51.75807 | -1.57326 | 261 ft | 18 kts | 18° |
| 2026-05-05 16:31 | 51.75896 | -1.57287 | 261 ft | 10 kts | 353° |
| 2026-05-05 16:31 | 51.75928 | -1.57358 | 261 ft | 8 kts | 280° |
| 2026-05-05 16:31 | 51.75930 | -1.57457 | 261 ft | 12 kts | 256° |
| 2026-05-05 16:32 | 51.75851 | -1.57545 | 261 ft | 18 kts | 198° |
| 2026-05-05 16:32 | 51.75714 | -1.57615 | 261 ft | 24 kts | 198° |
| 2026-05-05 16:32 | 51.75542 | -1.57714 | 261 ft | 29 kts | 205° |
| 2026-05-05 16:32 | 51.75368 | -1.57863 | 261 ft | 24 kts | 208° |
| 2026-05-05 16:33 | 51.75206 | -1.58004 | 261 ft | 29 kts | 207° |
| 2026-05-05 16:33 | 51.75017 | -1.58165 | 261 ft | 32 kts | 208° |
| 2026-05-05 16:33 | 51.74829 | -1.58330 | 261 ft | 30 kts | 209° |
| 2026-05-05 16:33 | 51.74667 | -1.58480 | 263 ft | 22 kts | 227° |
| 2026-05-05 16:34 | 51.74615 | -1.58699 | 261 ft | 20 kts | 253° |
| 2026-05-05 16:34 | 51.74577 | -1.58910 | 261 ft | 19 kts | 254° |
| 2026-05-05 16:34 | 51.74541 | -1.59112 | 261 ft | 18 kts | 253° |
| 2026-05-05 16:34 | 51.74506 | -1.59299 | 261 ft | 17 kts | 253° |
| 2026-05-05 16:35 | 51.74473 | -1.59477 | 261 ft | 16 kts | 253° |
| 2026-05-05 16:35 | 51.74441 | -1.59647 | 261 ft | 15 kts | 252° |
| 2026-05-05 16:35 | 51.74430 | -1.59822 | 261 ft | 16 kts | 284° |
| 2026-05-05 16:35 | 51.74477 | -1.59977 | 261 ft | 16 kts | 298° |
| 2026-05-05 16:36 | 51.74500 | -1.60099 | 261 ft | 7 kts | 255° |
| 2026-05-05 16:36 | 51.74488 | -1.60186 | 261 ft | 10 kts | 262° |
| 2026-05-05 16:36 | 51.74518 | -1.60303 | 261 ft | 12 kts | 321° |
| 2026-05-05 16:36 | 51.74588 | -1.60379 | 261 ft | 10 kts | 346° |
| 2026-05-05 16:37 | 51.74635 | -1.60301 | 262 ft | 13 kts | 76° |
| 2026-05-05 16:37 | 51.74643 | -1.60251 | 262 ft | 0 kts | 76° |
| 2026-05-05 16:38 | 51.74674 | -1.60069 | 260 ft | 43 kts | 74° |
| 2026-05-05 16:38 | 51.74807 | -1.59347 | 261 ft | 89 kts | 73° |
| 2026-05-05 16:38 | 51.75016 | -1.58210 | 261 ft | 122 kts | 73° |
| 2026-05-05 16:39 | 51.75296 | -1.56784 | 262 ft | 141 kts | 71° |
| 2026-05-05 16:39 | 51.75652 | -1.55118 | 513 ft | 175 kts | 70° |
| 2026-05-05 16:39 | 51.76009 | -1.53222 | 1673 ft | 182 kts | 70° |
| 2026-05-05 16:39 | 51.76412 | -1.50980 | 1945 ft | 239 kts | 72° |
| 2026-05-05 16:40 | 51.76833 | -1.48491 | 2312 ft | 208 kts | 75° |
| 2026-05-05 16:40 | 51.77237 | -1.46387 | 2199 ft | 198 kts | 75° |
| 2026-05-05 16:40 | 51.77636 | -1.44322 | 2690 ft | 180 kts | 72° |
| 2026-05-05 16:40 | 51.77976 | -1.42516 | 3987 ft | 153 kts | 69° |
| 2026-05-05 16:41 | 51.78261 | -1.40993 | 5243 ft | 141 kts | 70° |
| 2026-05-05 16:41 | 51.78583 | -1.39328 | 5818 ft | 172 kts | 71° |
| 2026-05-05 16:41 | 51.78945 | -1.37421 | 6665 ft | 174 kts | 72° |
| 2026-05-05 16:41 | 51.79333 | -1.35714 | 7829 ft | 160 kts | 50° |
| 2026-05-05 16:42 | 51.80346 | -1.34680 | 8151 ft | 195 kts | 20° |
| 2026-05-05 16:42 | 51.81616 | -1.33862 | 9328 ft | 182 kts | 24° |
| 2026-05-05 16:42 | 51.82655 | -1.33131 | 10909 ft | 170 kts | 23° |
| 2026-05-05 16:42 | 51.83962 | -1.32235 | 10968 ft | 233 kts | 22° |
| 2026-05-05 16:43 | 51.85460 | -1.31204 | 11324 ft | 231 kts | 22° |
| 2026-05-05 16:43 | 51.86933 | -1.30191 | 11717 ft | 235 kts | 22° |
| 2026-05-05 16:43 | 51.88454 | -1.29150 | 12224 ft | 238 kts | 22° |
| 2026-05-05 16:43 | 51.89988 | -1.28100 | 12651 ft | 243 kts | 22° |
| 2026-05-05 16:44 | 51.91549 | -1.27031 | 12729 ft | 254 kts | 22° |
| 2026-05-05 16:44 | 51.93172 | -1.25921 | 12667 ft | 244 kts | 22° |
| 2026-05-05 16:44 | 51.94725 | -1.24859 | 12663 ft | 249 kts | 22° |
| 2026-05-05 16:44 | 51.96494 | -1.23655 | 12719 ft | 303 kts | 22° |
| 2026-05-05 16:45 | 51.98445 | -1.22331 | 12732 ft | 301 kts | 22° |
| 2026-05-05 16:45 | 52.00360 | -1.21029 | 12745 ft | 298 kts | 22° |
| 2026-05-05 16:45 | 52.02240 | -1.19750 | 12985 ft | 299 kts | 21° |
| 2026-05-05 16:45 | 52.04193 | -1.18423 | 13274 ft | 305 kts | 21° |
| 2026-05-05 16:46 | 52.06010 | -1.17188 | 13648 ft | 304 kts | 21° |
| 2026-05-05 16:46 | 52.08020 | -1.15822 | 14068 ft | 309 kts | 21° |
| 2026-05-05 16:46 | 52.10032 | -1.14456 | 14492 ft | 312 kts | 21° |
| 2026-05-05 16:46 | 52.12025 | -1.13105 | 14910 ft | 312 kts | 21° |
| 2026-05-05 16:47 | 52.14034 | -1.11741 | 15335 ft | 315 kts | 21° |
| 2026-05-05 16:47 | 52.16100 | -1.10341 | 15721 ft | 338 kts | 21° |
| 2026-05-05 16:47 | 52.18299 | -1.08853 | 16030 ft | 342 kts | 21° |
| 2026-05-05 16:47 | 52.20479 | -1.07378 | 16318 ft | 344 kts | 21° |
| 2026-05-05 16:48 | 52.22706 | -1.05870 | 16602 ft | 349 kts | 21° |
| 2026-05-05 16:48 | 52.24939 | -1.04387 | 16900 ft | 349 kts | 19° |
| 2026-05-05 16:48 | 52.27246 | -1.03044 | 17189 ft | 350 kts | 18° |